Time;durP1;ratioP1;P1;durP2;ratioP2;P2;SDS_P1;SDS_P2;PMS_P1;PMS_P2;Temp;Humidity;BMP_temperature;BMP_pressure;BME280_temperature;BME280_humidity;BME280_pressure;Samples;Min_cycle;Max_cycle;Signal;HPM_P1;HPM_P2
2022/06/06 00:01:13;;;;;;;35.50;18.38;;;;;;;;;;7381382;19;20038;-74
2022/06/06 00:03:38;;;;;;;32.55;17.15;;;;;;;;;;7375354;19;20042;-74
2022/06/06 00:06:07;;;;;;;34.65;16.02;;;;;;;;;;7379495;19;20470;-74
2022/06/06 00:08:32;;;;;;;28.15;15.43;;;;;;;;;;7380549;19;20469;-74
2022/06/06 00:10:57;;;;;;;34.47;16.83;;;;;;;;;;7380730;19;20006;-75
2022/06/06 00:13:22;;;;;;;33.03;17.17;;;;;;;;;;7349168;19;20275;-74
2022/06/06 00:15:48;;;;;;;32.63;17.33;;;;;;;;;;7372386;19;20778;-74
2022/06/06 00:18:13;;;;;;;34.38;16.85;;;;;;;;;;7324074;19;20849;-75
2022/06/06 00:20:38;;;;;;;31.23;16.67;;;;;;;;;;7367210;19;20031;-73
2022/06/06 00:23:03;;;;;;;39.83;18.53;;;;;;;;;;7368554;19;20251;-74
2022/06/06 00:25:29;;;;;;;32.75;18.13;;;;;;;;;;7372004;19;20311;-74
2022/06/06 00:27:54;;;;;;;32.40;18.10;;;;;;;;;;7352261;19;20027;-74
2022/06/06 00:30:19;;;;;;;33.83;18.35;;;;;;;;;;7370277;19;20014;-74
2022/06/06 00:35:28;;;;;;;33.80;17.55;;;;;;;;;;7376924;19;20082;-74
2022/06/06 00:37:53;;;;;;;34.70;18.27;;;;;;;;;;7375686;19;20010;-74
2022/06/06 00:40:20;;;;;;;34.43;17.63;;;;;;;;;;7377513;19;20006;-75
2022/06/06 00:42:45;;;;;;;39.17;19.45;;;;;;;;;;7375726;19;20239;-74
2022/06/06 00:45:30;;;;;;;35.65;19.52;;;;;;;;;;7373832;19;20029;-75
2022/06/06 00:48:01;;;;;;;40.90;19.35;;;;;;;;;;7371807;19;20086;-74
2022/06/06 00:50:35;;;;;;;37.58;21.00;;;;;;;;;;7378395;19;19998;-74
2022/06/06 00:53:00;;;;;;;35.92;19.00;;;;;;;;;;7379085;19;20011;-74
2022/06/06 00:55:28;;;;;;;41.50;19.23;;;;;;;;;;7373999;19;20044;-74
2022/06/06 00:57:57;;;;;;;37.22;19.45;;;;;;;;;;7373198;19;20031;-74
2022/06/06 01:00:23;;;;;;;36.80;19.60;;;;;;;;;;7373763;19;20010;-74
2022/06/06 01:02:50;;;;;;;34.75;18.67;;;;;;;;;;7376062;19;20328;-74
2022/06/06 01:05:16;;;;;;;33.95;18.77;;;;;;;;;;7342343;19;20025;-73
2022/06/06 01:07:41;;;;;;;40.20;18.60;;;;;;;;;;7364428;19;20357;-74
2022/06/06 01:10:07;;;;;;;36.27;18.73;;;;;;;;;;7369948;19;20018;-74
2022/06/06 01:12:33;;;;;;;30.85;15.95;;;;;;;;;;7374922;19;20271;-76
2022/06/06 01:15:00;;;;;;;29.63;15.55;;;;;;;;;;7371647;19;20622;-75
2022/06/06 01:17:30;;;;;;;35.20;17.67;;;;;;;;;;7375298;19;20002;-74
2022/06/06 01:20:01;;;;;;;31.10;16.90;;;;;;;;;;7372621;19;20043;-75
2022/06/06 01:22:51;;;;;;;31.70;16.25;;;;;;;;;;7373432;19;20360;-74
2022/06/06 01:25:25;;;;;;;29.98;15.75;;;;;;;;;;7371507;19;20010;-75
2022/06/06 01:27:53;;;;;;;28.30;16.25;;;;;;;;;;7362486;19;20993;-75
2022/06/06 01:30:20;;;;;;;27.58;15.88;;;;;;;;;;7375588;19;20018;-74
2022/06/06 01:32:49;;;;;;;30.17;15.40;;;;;;;;;;7369420;19;20010;-74
2022/06/06 01:35:27;;;;;;;27.33;14.18;;;;;;;;;;7371854;19;20716;-75
2022/06/06 01:37:52;;;;;;;27.30;15.07;;;;;;;;;;7372352;19;20022;-75
2022/06/06 01:40:18;;;;;;;27.00;14.07;;;;;;;;;;7373429;19;20474;-75
2022/06/06 01:42:58;;;;;;;29.05;15.48;;;;;;;;;;7371744;19;20006;-76
2022/06/06 01:45:26;;;;;;;20.90;12.82;;;;;;;;;;7372056;19;20470;-75
2022/06/06 01:47:53;;;;;;;29.25;15.68;;;;;;;;;;7372280;19;20434;-75
2022/06/06 01:50:20;;;;;;;26.75;14.90;;;;;;;;;;7376370;19;20040;-76
2022/06/06 01:52:49;;;;;;;24.50;13.20;;;;;;;;;;7372362;19;20018;-75
2022/06/06 01:55:15;;;;;;;30.08;15.48;;;;;;;;;;7370863;19;19998;-74
2022/06/06 01:57:40;;;;;;;22.60;12.18;;;;;;;;;;7375947;19;20520;-75
2022/06/06 02:00:05;;;;;;;24.00;13.32;;;;;;;;;;7364347;19;20010;-76
2022/06/06 02:02:31;;;;;;;27.45;15.52;;;;;;;;;;7375963;19;20372;-75
2022/06/06 02:04:56;;;;;;;29.75;15.13;;;;;;;;;;7369542;19;20003;-75
2022/06/06 02:07:21;;;;;;;26.92;15.25;;;;;;;;;;7367410;19;20604;-75
2022/06/06 02:09:46;;;;;;;23.43;13.07;;;;;;;;;;7377307;19;20011;-76
2022/06/06 02:12:12;;;;;;;27.43;14.47;;;;;;;;;;7368578;19;20620;-75
2022/06/06 02:14:37;;;;;;;27.85;15.13;;;;;;;;;;7375229;19;20015;-75
2022/06/06 02:17:02;;;;;;;24.00;13.25;;;;;;;;;;7372531;19;20017;-73
2022/06/06 02:19:28;;;;;;;24.75;14.40;;;;;;;;;;7343631;19;20035;-75
2022/06/06 02:21:53;;;;;;;24.87;13.77;;;;;;;;;;7378465;19;20335;-75
2022/06/06 02:24:19;;;;;;;26.10;15.57;;;;;;;;;;7370288;19;20015;-74
2022/06/06 02:26:44;;;;;;;28.55;14.27;;;;;;;;;;7368994;19;20014;-75
2022/06/06 02:29:09;;;;;;;28.23;15.60;;;;;;;;;;7367153;19;20058;-75
2022/06/06 02:31:37;;;;;;;26.17;14.30;;;;;;;;;;7372274;19;20954;-75
2022/06/06 02:34:04;;;;;;;28.17;15.07;;;;;;;;;;7334257;19;20723;-74
2022/06/06 02:36:29;;;;;;;30.00;14.55;;;;;;;;;;7374898;19;20087;-74
2022/06/06 02:38:54;;;;;;;25.27;13.55;;;;;;;;;;7367134;19;20011;-74
2022/06/06 02:41:19;;;;;;;23.53;11.93;;;;;;;;;;7368669;19;20368;-75
2022/06/06 02:43:45;;;;;;;19.92;11.75;;;;;;;;;;7372050;19;20251;-74
2022/06/06 02:46:11;;;;;;;26.90;13.07;;;;;;;;;;7374680;19;20034;-74
2022/06/06 02:48:37;;;;;;;24.52;13.15;;;;;;;;;;7378987;19;20281;-75
2022/06/06 02:51:02;;;;;;;25.10;14.20;;;;;;;;;;7380806;19;20015;-74
2022/06/06 02:53:27;;;;;;;27.23;13.90;;;;;;;;;;7380889;19;20439;-75
2022/06/06 02:55:53;;;;;;;25.10;13.77;;;;;;;;;;7372141;19;20015;-75
2022/06/06 02:58:22;;;;;;;27.05;13.60;;;;;;;;;;7381917;19;20107;-74
2022/06/06 03:00:48;;;;;;;30.25;14.90;;;;;;;;;;7382307;19;20019;-74
2022/06/06 03:03:13;;;;;;;26.63;13.80;;;;;;;;;;7372773;19;20007;-75
2022/06/06 03:05:47;;;;;;;29.02;14.00;;;;;;;;;;7377913;19;20014;-75
2022/06/06 03:08:13;;;;;;;;;;;;;;;;;;7376357;19;20022;-74
2022/06/06 03:10:53;;;;;;;29.10;14.15;;;;;;;;;;7378839;19;19937;-74
2022/06/06 03:13:21;;;;;;;29.95;15.00;;;;;;;;;;7377660;19;20384;-74
2022/06/06 03:21:33;;;;;;;31.95;15.30;;;;;;;;;;7379528;19;20023;-74
2022/06/06 03:24:04;;;;;;;25.92;14.13;;;;;;;;;;7376789;19;20442;-74
2022/06/06 03:26:29;;;;;;;26.40;14.93;;;;;;;;;;7370020;19;20013;-74
2022/06/06 03:29:00;;;;;;;29.47;13.87;;;;;;;;;;7373700;19;20545;-75
2022/06/06 03:31:27;;;;;;;29.98;14.38;;;;;;;;;;7371330;19;20811;-74
2022/06/06 03:33:55;;;;;;;26.25;13.38;;;;;;;;;;7370981;19;20089;-75
2022/06/06 03:36:28;;;;;;;29.50;14.68;;;;;;;;;;7368939;19;20008;-77
2022/06/06 03:39:02;;;;;;;24.45;13.15;;;;;;;;;;7372292;19;20260;-75
2022/06/06 03:41:36;;;;;;;27.48;13.38;;;;;;;;;;7373297;19;20007;-73
2022/06/06 03:44:04;;;;;;;28.13;13.32;;;;;;;;;;7377718;19;20490;-73
2022/06/06 03:46:39;;;;;;;30.40;14.27;;;;;;;;;;7377545;19;20468;-73
2022/06/06 03:49:19;;;;;;;30.30;13.10;;;;;;;;;;7374197;19;20306;-74
2022/06/06 03:51:50;;;;;;;23.13;13.43;;;;;;;;;;7378331;19;20011;-75
2022/06/06 03:54:16;;;;;;;23.52;12.30;;;;;;;;;;7373531;19;20007;-73
2022/06/06 03:56:57;;;;;;;26.52;13.23;;;;;;;;;;7358622;19;20030;-74
2022/06/06 03:59:22;;;;;;;17.98;10.25;;;;;;;;;;7378143;19;20018;-77
2022/06/06 04:01:48;;;;;;;21.17;11.07;;;;;;;;;;7378851;19;20007;-77
2022/06/06 04:04:14;;;;;;;22.58;11.32;;;;;;;;;;7371464;19;19998;-75
2022/06/06 04:06:39;;;;;;;22.95;11.50;;;;;;;;;;7373361;19;20013;-76
2022/06/06 04:09:04;;;;;;;21.70;11.80;;;;;;;;;;7377152;19;20019;-75
2022/06/06 04:11:29;;;;;;;21.80;11.68;;;;;;;;;;7373484;19;20864;-75
2022/06/06 04:14:03;;;;;;;20.75;10.52;;;;;;;;;;7380742;19;19999;-75
2022/06/06 04:16:34;;;;;;;20.55;11.50;;;;;;;;;;7374123;19;20006;-74
2022/06/06 04:19:11;;;;;;;18.35;11.02;;;;;;;;;;7374822;19;20494;-75
2022/06/06 04:21:47;;;;;;;26.42;11.75;;;;;;;;;;7372228;19;20003;-73
2022/06/06 04:24:12;;;;;;;20.27;11.40;;;;;;;;;;7374967;19;20017;-74
2022/06/06 04:27:07;;;;;;;18.88;11.50;;;;;;;;;;7367416;19;20158;-76
2022/06/06 04:29:39;;;;;;;19.85;10.77;;;;;;;;;;7377276;19;20006;-73
2022/06/06 04:32:22;;;;;;;20.80;10.70;;;;;;;;;;7376196;19;20018;-74
2022/06/06 04:34:48;;;;;;;17.58;10.40;;;;;;;;;;7371738;19;20577;-74
2022/06/06 04:37:16;;;;;;;20.02;10.70;;;;;;;;;;7378264;19;20070;-74
2022/06/06 04:39:47;;;;;;;17.90;10.60;;;;;;;;;;7376119;19;20447;-74
2022/06/06 04:42:21;;;;;;;20.67;10.68;;;;;;;;;;7367569;19;20024;-76
2022/06/06 04:44:52;;;;;;;17.00;9.57;;;;;;;;;;7373140;19;20445;-75
2022/06/06 04:47:24;;;;;;;22.20;9.95;;;;;;;;;;7373574;19;19995;-74
2022/06/06 04:49:51;;;;;;;18.90;10.38;;;;;;;;;;7375762;19;20006;-74
2022/06/06 04:52:17;;;;;;;15.68;9.30;;;;;;;;;;7378955;19;20021;-73
2022/06/06 04:54:44;;;;;;;19.77;10.88;;;;;;;;;;7375947;19;20469;-76
2022/06/06 04:57:11;;;;;;;19.48;10.55;;;;;;;;;;7367531;19;20518;-75
2022/06/06 04:59:37;;;;;;;16.73;9.52;;;;;;;;;;7370582;19;20031;-76
2022/06/06 05:02:03;;;;;;;15.70;8.77;;;;;;;;;;7379133;19;20321;-77
2022/06/06 05:04:29;;;;;;;17.08;8.43;;;;;;;;;;7372762;19;20006;-76
2022/06/06 05:06:57;;;;;;;12.85;7.47;;;;;;;;;;7372969;19;20018;-77
2022/06/06 05:09:22;;;;;;;17.85;8.05;;;;;;;;;;7375759;19;20009;-75
2022/06/06 05:11:47;;;;;;;14.33;7.60;;;;;;;;;;7370957;19;20011;-77
2022/06/06 05:14:31;;;;;;;12.52;7.22;;;;;;;;;;7382421;19;20573;-77
2022/06/06 05:17:06;;;;;;;11.80;6.45;;;;;;;;;;7369736;19;20469;-76
2022/06/06 05:19:51;;;;;;;9.55;5.85;;;;;;;;;;7366141;19;20090;-78
2022/06/06 05:22:16;;;;;;;12.30;6.03;;;;;;;;;;7367012;19;20030;-76
2022/06/06 05:24:50;;;;;;;11.80;5.70;;;;;;;;;;7375550;19;20019;-74
2022/06/06 05:27:40;;;;;;;10.13;5.50;;;;;;;;;;7374443;19;20323;-75
2022/06/06 05:30:17;;;;;;;10.60;5.50;;;;;;;;;;7367607;19;20027;-77
2022/06/06 05:32:49;;;;;;;9.85;5.28;;;;;;;;;;7360576;19;20066;-77
2022/06/06 05:35:21;;;;;;;11.23;5.22;;;;;;;;;;7367074;19;20006;-76
2022/06/06 05:37:49;;;;;;;11.77;4.72;;;;;;;;;;7377791;19;20029;-76
2022/06/06 05:40:14;;;;;;;12.82;5.50;;;;;;;;;;7371830;19;20003;-76
2022/06/06 05:42:54;;;;;;;10.77;5.35;;;;;;;;;;7373095;19;20030;-76
2022/06/06 05:45:19;;;;;;;13.75;5.22;;;;;;;;;;7374852;19;20014;-77
2022/06/06 05:47:56;;;;;;;9.20;4.55;;;;;;;;;;7372669;19;20613;-76
2022/06/06 05:50:40;;;;;;;11.20;5.05;;;;;;;;;;7372463;19;20010;-75
2022/06/06 05:53:24;;;;;;;9.68;4.72;;;;;;;;;;7376272;19;20475;-77
2022/06/06 05:55:58;;;;;;;9.70;4.18;;;;;;;;;;7374573;19;20029;-76
2022/06/06 05:58:26;;;;;;;9.60;4.97;;;;;;;;;;7364833;19;20512;-76
2022/06/06 06:01:08;;;;;;;7.75;4.03;;;;;;;;;;7374660;19;20082;-76
2022/06/06 06:03:33;;;;;;;8.43;4.57;;;;;;;;;;7370317;19;20017;-75
2022/06/06 06:06:01;;;;;;;7.85;4.35;;;;;;;;;;7374682;19;20339;-75
2022/06/06 06:08:27;;;;;;;8.98;4.82;;;;;;;;;;7373088;19;20034;-76
2022/06/06 06:10:52;;;;;;;10.18;4.40;;;;;;;;;;7366666;19;20416;-76
2022/06/06 06:13:26;;;;;;;9.48;4.15;;;;;;;;;;7374733;19;20033;-75
2022/06/06 06:15:51;;;;;;;;;;;;;;;;;;7370945;19;20033;-76
2022/06/06 06:18:22;;;;;;;8.93;3.42;;;;;;;;;;7367619;19;19923;-75
2022/06/06 06:20:51;;;;;;;6.43;2.80;;;;;;;;;;7379218;19;20022;-75
2022/06/06 06:23:21;;;;;;;5.63;2.47;;;;;;;;;;7382517;19;20073;-75
2022/06/06 06:25:47;;;;;;;5.55;2.85;;;;;;;;;;7379147;19;20107;-75
2022/06/06 06:28:13;;;;;;;6.60;2.70;;;;;;;;;;7374769;19;20014;-75
2022/06/06 06:31:17;;;;;;;6.93;2.97;;;;;;;;;;7380610;19;19999;-75
2022/06/06 06:34:01;;;;;;;8.93;2.95;;;;;;;;;;7371608;19;20015;-75
2022/06/06 06:36:29;;;;;;;6.65;2.67;;;;;;;;;;7369097;19;20001;-75
2022/06/06 06:39:20;;;;;;;7.03;2.60;;;;;;;;;;7373865;19;20029;-74
2022/06/06 06:41:57;;;;;;;7.32;2.58;;;;;;;;;;7380030;19;20470;-75
2022/06/06 06:44:29;;;;;;;8.65;3.08;;;;;;;;;;7381273;19;20010;-76
2022/06/06 06:46:57;;;;;;;7.22;2.67;;;;;;;;;;7374978;19;20002;-75
2022/06/06 06:49:48;;;;;;;5.97;2.45;;;;;;;;;;7371469;19;20187;-75
2022/06/06 06:52:14;;;;;;;5.90;2.22;;;;;;;;;;7380377;19;20002;-76
2022/06/06 06:54:51;;;;;;;5.17;2.17;;;;;;;;;;7381175;19;20316;-75
2022/06/06 06:57:31;;;;;;;6.78;2.10;;;;;;;;;;7373507;19;20045;-75
2022/06/06 07:00:11;;;;;;;5.32;2.08;;;;;;;;;;7382235;19;20459;-75
2022/06/06 07:08:34;;;;;;;5.22;2.10;;;;;;;;;;7378063;19;20014;-75
2022/06/06 07:11:05;;;;;;;7.60;1.80;;;;;;;;;;7384372;19;20007;-75
2022/06/06 07:13:30;;;;;;;6.55;2.58;;;;;;;;;;7378294;19;20022;-75
2022/06/06 07:16:02;;;;;;;7.88;2.08;;;;;;;;;;7375699;19;20006;-74
2022/06/06 07:18:30;;;;;;;5.88;2.00;;;;;;;;;;7365969;19;20103;-76
2022/06/06 07:20:57;;;;;;;7.60;2.13;;;;;;;;;;7373541;19;20007;-75
2022/06/06 07:23:24;;;;;;;9.45;2.10;;;;;;;;;;7375476;19;20023;-75
2022/06/06 07:25:50;;;;;;;6.03;1.80;;;;;;;;;;7379661;19;20018;-76
2022/06/06 07:28:17;;;;;;;4.63;1.90;;;;;;;;;;7381309;19;20347;-77
2022/06/06 07:30:54;;;;;;;5.97;2.20;;;;;;;;;;7378688;19;20529;-75
2022/06/06 07:33:25;;;;;;;6.55;2.13;;;;;;;;;;7378394;19;20029;-76
2022/06/06 07:36:05;;;;;;;4.60;2.00;;;;;;;;;;7375427;19;20006;-76
2022/06/06 07:38:31;;;;;;;7.20;2.00;;;;;;;;;;7375979;19;20029;-75
2022/06/06 07:41:11;;;;;;;8.10;3.58;;;;;;;;;;7380538;19;19991;-76
2022/06/06 07:43:44;;;;;;;5.20;2.03;;;;;;;;;;7371126;19;20656;-75
2022/06/06 07:46:28;;;;;;;13.90;2.30;;;;;;;;;;7381010;19;20003;-75
2022/06/06 07:49:04;;;;;;;8.40;1.58;;;;;;;;;;7374044;19;20106;-75
2022/06/06 07:51:32;;;;;;;5.30;1.58;;;;;;;;;;7378476;19;20022;-75
2022/06/06 07:53:57;;;;;;;5.35;2.00;;;;;;;;;;7381748;19;20014;-75
2022/06/06 07:56:37;;;;;;;5.53;1.70;;;;;;;;;;7375054;19;20009;-75
2022/06/06 07:59:12;;;;;;;6.07;1.58;;;;;;;;;;7376851;19;20011;-75
2022/06/06 08:01:47;;;;;;;5.07;1.50;;;;;;;;;;7380133;19;20485;-75
2022/06/06 08:04:28;;;;;;;8.05;1.42;;;;;;;;;;7371948;19;20358;-75
2022/06/06 08:06:53;;;;;;;4.57;1.40;;;;;;;;;;7377672;19;20116;-76
2022/06/06 08:09:37;;;;;;;6.93;1.80;;;;;;;;;;7377198;19;20003;-75
2022/06/06 08:12:02;;;;;;;;;;;;;;;;;;7372670;19;20009;-75
2022/06/06 08:14:28;;;;;;;6.50;1.53;;;;;;;;;;7375628;19;20470;-77
2022/06/06 08:17:02;;;;;;;4.57;1.55;;;;;;;;;;7375455;19;20010;-75
2022/06/06 08:19:33;;;;;;;5.60;1.88;;;;;;;;;;7374896;19;19994;-75
2022/06/06 08:21:59;;;;;;;4.03;1.40;;;;;;;;;;7378592;19;20407;-76
2022/06/06 08:24:24;;;;;;;4.82;1.50;;;;;;;;;;7380859;19;19998;-74
2022/06/06 08:26:50;;;;;;;5.90;1.60;;;;;;;;;;7356344;19;20003;-75
2022/06/06 08:29:17;;;;;;;6.30;1.52;;;;;;;;;;7370347;19;20015;-75
2022/06/06 08:31:42;;;;;;;3.97;1.52;;;;;;;;;;7369795;19;20363;-75
2022/06/06 08:34:07;;;;;;;7.10;1.60;;;;;;;;;;7376294;19;20014;-75
2022/06/06 08:36:32;;;;;;;4.25;1.65;;;;;;;;;;7372085;19;20006;-74
2022/06/06 08:39:04;;;;;;;4.10;1.70;;;;;;;;;;7374484;19;20017;-75
2022/06/06 08:41:32;;;;;;;6.00;1.60;;;;;;;;;;7375083;19;19994;-75
2022/06/06 08:44:15;;;;;;;4.70;1.70;;;;;;;;;;7356432;19;20018;-75
2022/06/06 08:46:43;;;;;;;4.63;1.73;;;;;;;;;;7371366;19;20606;-74
2022/06/06 08:50:44;;;;;;;5.93;1.73;;;;;;;;;;7370617;19;20002;-75
2022/06/06 08:52:09;;;;;;;5.85;1.90;;;;;;;;;;7378076;19;20760;-74
2022/06/06 08:55:10;;;;;;;4.28;1.67;;;;;;;;;;7373716;19;20047;-75
2022/06/06 08:57:45;;;;;;;3.83;1.60;;;;;;;;;;7368368;19;20052;-75
2022/06/06 09:00:26;;;;;;;6.53;1.85;;;;;;;;;;7372664;19;19999;-75
2022/06/06 09:02:57;;;;;;;5.93;1.88;;;;;;;;;;7357567;19;20383;-74
2022/06/06 09:05:46;;;;;;;6.75;2.25;;;;;;;;;;7369922;19;20017;-74
2022/06/06 09:08:34;;;;;;;4.95;1.73;;;;;;;;;;7366611;19;20021;-75
2022/06/06 09:11:11;;;;;;;6.03;1.75;;;;;;;;;;7373007;19;20091;-75
2022/06/06 09:14:02;;;;;;;5.13;1.88;;;;;;;;;;7362304;19;20017;-75
2022/06/06 09:16:46;;;;;;;5.97;2.30;;;;;;;;;;7367540;19;20349;-75
2022/06/06 09:19:31;;;;;;;5.53;2.03;;;;;;;;;;7368915;19;20078;-75
2022/06/06 09:22:08;;;;;;;8.13;2.20;;;;;;;;;;7375018;19;20518;-75
2022/06/06 09:24:33;;;;;;;6.82;2.53;;;;;;;;;;7378861;19;20469;-74
2022/06/06 09:27:18;;;;;;;8.07;2.70;;;;;;;;;;7368824;19;20006;-74
2022/06/06 09:29:43;;;;;;;7.70;2.88;;;;;;;;;;7372339;19;20357;-74
2022/06/06 09:32:25;;;;;;;6.20;2.27;;;;;;;;;;7370475;19;20027;-74
2022/06/06 09:34:57;;;;;;;7.55;2.60;;;;;;;;;;7368699;19;20491;-74
2022/06/06 09:37:37;;;;;;;4.63;2.30;;;;;;;;;;7376675;19;19994;-74
2022/06/06 09:40:02;;;;;;;4.80;2.15;;;;;;;;;;7330763;19;20631;-74
2022/06/06 09:42:37;;;;;;;7.03;2.33;;;;;;;;;;7364478;19;20341;-73
2022/06/06 09:45:17;;;;;;;4.82;2.22;;;;;;;;;;7379308;19;20077;-74
2022/06/06 09:48:01;;;;;;;4.55;2.25;;;;;;;;;;7373126;19;20115;-74
2022/06/06 09:50:26;;;;;;;5.55;2.75;;;;;;;;;;7373103;19;20601;-73
2022/06/06 09:52:51;;;;;;;5.83;2.40;;;;;;;;;;7372241;19;20093;-74
2022/06/06 10:00:50;;;;;;;6.57;2.95;;;;;;;;;;7366919;19;20023;-76
2022/06/06 10:03:34;;;;;;;8.68;2.42;;;;;;;;;;7359260;19;20432;-73
2022/06/06 10:06:17;;;;;;;10.10;2.70;;;;;;;;;;7361727;19;20241;-76
2022/06/06 10:09:01;;;;;;;13.60;3.23;;;;;;;;;;7370239;19;20017;-81
2022/06/06 10:11:36;;;;;;;6.15;2.35;;;;;;;;;;7352472;19;19998;-78
2022/06/06 10:14:20;;;;;;;5.45;2.15;;;;;;;;;;7358850;19;20022;-77
2022/06/06 10:16:46;;;;;;;;;;;;;;;;;;7365796;19;20411;-77
2022/06/06 10:19:30;;;;;;;5.13;2.40;;;;;;;;;;7357305;19;19923;-76
2022/06/06 10:21:55;;;;;;;6.47;2.00;;;;;;;;;;7369668;19;20458;-76
2022/06/06 10:24:37;;;;;;;5.30;2.20;;;;;;;;;;7363634;19;20296;-76
2022/06/06 10:27:08;;;;;;;5.72;2.33;;;;;;;;;;7373985;19;20514;-76
2022/06/06 10:30:10;;;;;;;4.78;1.95;;;;;;;;;;7369642;19;20009;-75
2022/06/06 10:32:37;;;;;;;8.25;2.20;;;;;;;;;;7372419;19;20042;-74
2022/06/06 10:35:08;;;;;;;7.10;1.98;;;;;;;;;;7370767;19;20030;-73
2022/06/06 10:37:46;;;;;;;4.20;1.95;;;;;;;;;;7371520;19;20014;-74
2022/06/06 10:40:11;;;;;;;7.55;2.20;;;;;;;;;;7370802;19;20496;-74
2022/06/06 10:42:44;;;;;;;5.83;1.87;;;;;;;;;;7368155;19;20364;-76
2022/06/06 10:45:14;;;;;;;5.22;1.98;;;;;;;;;;7367165;19;20010;-75
2022/06/06 10:47:58;;;;;;;5.10;1.70;;;;;;;;;;7367140;19;20489;-73
2022/06/06 10:51:36;;;;;;;5.53;1.90;;;;;;;;;;7375978;19;20014;-75
2022/06/06 10:53:46;;;;;;;8.10;2.10;;;;;;;;;;7364367;19;20395;-75
2022/06/06 10:56:19;;;;;;;6.57;2.17;;;;;;;;;;7373031;19;20011;-74
2022/06/06 10:58:47;;;;;;;4.37;1.90;;;;;;;;;;7375477;19;20457;-77
2022/06/06 11:01:18;;;;;;;7.13;2.00;;;;;;;;;;7365890;19;20263;-74
2022/06/06 11:04:02;;;;;;;5.78;2.10;;;;;;;;;;7368345;19;20433;-77
2022/06/06 11:06:46;;;;;;;4.53;1.95;;;;;;;;;;7377031;19;20103;-76
2022/06/06 11:09:11;;;;;;;;;;;;;;;;;;7379292;19;20030;-76
2022/06/06 11:11:36;;;;;;;4.50;2.13;;;;;;;;;;7369417;19;20248;-77
2022/06/06 11:14:20;;;;;;;7.73;2.07;;;;;;;;;;7375863;19;20290;-76
2022/06/06 11:16:45;;;;;;;;;;;;;;;;;;7373341;19;20023;-77
2022/06/06 11:19:29;;;;;;;7.18;2.40;;;;;;;;;;7358409;19;19922;-75
2022/06/06 11:22:12;;;;;;;6.30;2.10;;;;;;;;;;7369966;19;20002;-73
2022/06/06 11:24:50;;;;;;;4.75;1.80;;;;;;;;;;7359677;19;20010;-74
2022/06/06 11:27:33;;;;;;;6.43;2.03;;;;;;;;;;7360191;19;20133;-75
2022/06/06 11:30:06;;;;;;;4.30;1.52;;;;;;;;;;7363865;19;20066;-74
2022/06/06 11:32:34;;;;;;;4.70;1.80;;;;;;;;;;7368743;19;20026;-72
2022/06/06 11:35:18;;;;;;;4.80;1.73;;;;;;;;;;7366723;19;20360;-75
2022/06/06 11:37:43;;;;;;;;;;;;;;;;;;7378967;19;20501;-75
2022/06/06 11:40:36;;;;;;;6.45;2.05;;;;;;;;;;7370552;19;20343;-76
2022/06/06 11:43:16;;;;;;;3.97;1.60;;;;;;;;;;7378924;19;20010;-75
2022/06/06 11:45:41;;;;;;;4.10;1.70;;;;;;;;;;7376886;19;20590;-75
2022/06/06 11:48:25;;;;;;;5.45;1.80;;;;;;;;;;7374127;19;20451;-76
2022/06/06 11:51:05;;;;;;;6.95;2.05;;;;;;;;;;7376396;19;20031;-75
2022/06/06 11:53:49;;;;;;;4.18;1.73;;;;;;;;;;7373163;19;20044;-74
2022/06/06 11:56:18;;;;;;;6.40;1.92;;;;;;;;;;7378994;19;19999;-76
2022/06/06 11:58:58;;;;;;;4.18;1.35;;;;;;;;;;7383186;19;20010;-77
2022/06/06 12:01:40;;;;;;;4.78;2.15;;;;;;;;;;7377989;19;19998;-77
2022/06/06 12:04:24;;;;;;;5.82;1.60;;;;;;;;;;7375643;19;19999;-76
2022/06/06 12:07:08;;;;;;;7.05;1.92;;;;;;;;;;7381853;19;20010;-78
2022/06/06 12:09:42;;;;;;;4.72;1.50;;;;;;;;;;7375904;19;20003;-76
2022/06/06 12:12:10;;;;;;;4.45;1.60;;;;;;;;;;7376217;19;20491;-76
2022/06/06 12:14:54;;;;;;;4.63;1.45;;;;;;;;;;7378600;19;20011;-75
2022/06/06 12:17:38;;;;;;;4.93;1.25;;;;;;;;;;7376348;19;20078;-76
2022/06/06 12:20:03;;;;;;;;;;;;;;;;;;7371787;19;20691;-75
2022/06/06 12:22:32;;;;;;;3.13;1.20;;;;;;;;;;7371951;19;20365;-75
2022/06/06 12:24:57;;;;;;;5.63;1.60;;;;;;;;;;7375132;19;20006;-75
2022/06/06 12:27:22;;;;;;;3.20;1.30;;;;;;;;;;7373428;19;20070;-73
2022/06/06 12:29:56;;;;;;;4.40;1.40;;;;;;;;;;7368373;19;19999;-74
2022/06/06 12:32:24;;;;;;;9.68;2.08;;;;;;;;;;7373893;19;20034;-77
2022/06/06 12:34:55;;;;;;;6.75;1.55;;;;;;;;;;7373081;19;20007;-76
2022/06/06 12:37:25;;;;;;;3.78;1.30;;;;;;;;;;7373178;19;20043;-74
2022/06/06 12:39:57;;;;;;;7.72;1.98;;;;;;;;;;7369665;19;20017;-74
2022/06/06 12:42:37;;;;;;;5.30;1.50;;;;;;;;;;7370992;19;20022;-74
2022/06/06 12:45:18;;;;;;;5.90;1.55;;;;;;;;;;7376715;19;20034;-74
2022/06/06 12:47:49;;;;;;;6.18;1.55;;;;;;;;;;7369378;19;19998;-74
2022/06/06 12:50:26;;;;;;;5.40;1.30;;;;;;;;;;7368578;19;20091;-75
2022/06/06 12:53:03;;;;;;;4.63;1.42;;;;;;;;;;7373559;19;20021;-74
2022/06/06 12:55:38;;;;;;;3.22;1.40;;;;;;;;;;7367003;19;20073;-75
2022/06/06 12:58:12;;;;;;;5.78;1.30;;;;;;;;;;7378530;19;20010;-75
2022/06/06 13:03:43;;;;;;;6.22;1.50;;;;;;;;;;7374629;19;20046;-76
2022/06/06 13:06:20;;;;;;;7.75;1.45;;;;;;;;;;7378329;19;20002;-76
2022/06/06 13:09:04;;;;;;;5.78;1.42;;;;;;;;;;7362799;19;20458;-74
2022/06/06 15:37:18;;;;;;;3.42;1.00;;;;;;;;;;7298064;19;20023;-74
2022/06/06 15:39:44;;;;;;;5.95;1.02;;;;;;;;;;7366202;19;20010;-73
2022/06/06 15:42:11;;;;;;;7.85;0.98;;;;;;;;;;7373477;19;20498;-74
2022/06/06 15:44:57;;;;;;;3.70;0.90;;;;;;;;;;7366379;19;20014;-74
2022/06/06 15:47:28;;;;;;;5.05;1.02;;;;;;;;;;7372898;19;20003;-75
2022/06/06 15:50:12;;;;;;;2.58;1.00;;;;;;;;;;7366157;19;20027;-74
2022/06/06 15:52:47;;;;;;;2.92;1.10;;;;;;;;;;7363427;19;20011;-75
2022/06/06 15:55:31;;;;;;;4.85;0.90;;;;;;;;;;7372418;19;20014;-73
2022/06/06 15:58:02;;;;;;;5.68;1.13;;;;;;;;;;7372744;19;20021;-75
2022/06/06 16:00:30;;;;;;;3.28;0.80;;;;;;;;;;7377364;19;19995;-74
2022/06/06 16:03:13;;;;;;;2.75;0.70;;;;;;;;;;7375831;19;20413;-75
2022/06/06 16:05:41;;;;;;;9.52;3.65;;;;;;;;;;7378127;19;20010;-74
2022/06/06 16:08:09;;;;;;;8.90;2.50;;;;;;;;;;7363376;19;20022;-75
2022/06/06 16:10:48;;;;;;;12.93;6.75;;;;;;;;;;7373814;19;20347;-76
2022/06/06 16:13:25;;;;;;;7.03;3.15;;;;;;;;;;7380828;19;20025;-78
2022/06/06 16:15:57;;;;;;;6.25;1.00;;;;;;;;;;7367652;19;20593;-76
2022/06/06 16:18:34;;;;;;;4.85;1.38;;;;;;;;;;7370879;19;20481;-73
2022/06/06 16:21:14;;;;;;;5.20;1.58;;;;;;;;;;7372565;19;20010;-74
2022/06/06 16:23:59;;;;;;;18.48;8.35;;;;;;;;;;7376206;19;20011;-73
2022/06/06 16:26:29;;;;;;;10.35;4.32;;;;;;;;;;7363949;19;20576;-74
2022/06/06 16:28:57;;;;;;;130.82;52.88;;;;;;;;;;7364224;19;20010;-75
2022/06/06 16:31:24;;;;;;;29.30;14.63;;;;;;;;;;7362074;19;20014;-73
2022/06/06 16:34:08;;;;;;;5.63;1.33;;;;;;;;;;7366970;19;20096;-74
2022/06/06 16:36:35;;;;;;;;;;;;;;;;;;7367356;19;20014;-73
2022/06/06 16:39:00;;;;;;;79.35;40.17;;;;;;;;;;7370139;19;19951;-74
2022/06/06 16:50:27;;;;;;;5.32;1.23;;;;;;;;;;7369135;19;20042;-76
2022/06/06 16:53:01;;;;;;;3.60;1.13;;;;;;;;;;7374763;19;20046;-74
2022/06/06 16:55:47;;;;;;;10.60;4.03;;;;;;;;;;7365121;19;20009;-75
2022/06/06 16:58:15;;;;;;;4.32;1.00;;;;;;;;;;7343943;19;20030;-75
2022/06/06 17:00:46;;;;;;;3.78;0.80;;;;;;;;;;7356463;19;20026;-74
2022/06/06 17:03:29;;;;;;;2.90;0.90;;;;;;;;;;7368165;19;20070;-74
2022/06/06 17:08:54;;;;;;;15.20;7.78;;;;;;;;;;7364180;19;20522;-74
2022/06/06 17:11:34;;;;;;;20.52;8.95;;;;;;;;;;7367972;19;20569;-74
2022/06/06 17:14:01;;;;;;;5.63;1.77;;;;;;;;;;7367248;19;20003;-74
2022/06/06 17:16:41;;;;;;;5.57;1.90;;;;;;;;;;7374648;19;20018;-74
2022/06/06 17:19:12;;;;;;;20.70;12.68;;;;;;;;;;7362666;19;20038;-75
2022/06/06 17:21:40;;;;;;;8.90;1.73;;;;;;;;;;7355117;19;19998;-75
2022/06/06 17:24:24;;;;;;;3.30;1.13;;;;;;;;;;7366902;19;20010;-74
2022/06/06 17:26:54;;;;;;;27.77;15.25;;;;;;;;;;7366571;19;20081;-74
2022/06/06 17:29:19;;;;;;;3.58;0.95;;;;;;;;;;7371212;19;20470;-74
2022/06/06 17:32:03;;;;;;;8.17;2.30;;;;;;;;;;7364510;19;20125;-74
2022/06/06 17:34:31;;;;;;;5.82;2.13;;;;;;;;;;7370157;19;20432;-75
2022/06/06 17:37:04;;;;;;;8.90;3.28;;;;;;;;;;7342035;19;20010;-74
2022/06/06 17:39:38;;;;;;;4.93;0.90;;;;;;;;;;7361997;19;20018;-74
2022/06/06 17:42:09;;;;;;;8.75;3.28;;;;;;;;;;7362510;19;20021;-74
2022/06/06 17:44:45;;;;;;;23.23;12.70;;;;;;;;;;7369353;19;20443;-73
2022/06/06 17:47:16;;;;;;;4.70;1.48;;;;;;;;;;7360158;19;20587;-74
2022/06/06 17:49:51;;;;;;;5.97;1.20;;;;;;;;;;7360048;19;20005;-73
2022/06/06 17:52:16;;;;;;;3.78;1.02;;;;;;;;;;7360477;19;20018;-76
2022/06/06 17:54:52;;;;;;;33.78;16.35;;;;;;;;;;7367702;19;19999;-75
2022/06/06 17:57:36;;;;;;;7.43;2.60;;;;;;;;;;7363234;19;20426;-74
2022/06/06 18:00:19;;;;;;;61.63;30.25;;;;;;;;;;7368783;19;20359;-74
2022/06/06 18:02:59;;;;;;;9.03;3.40;;;;;;;;;;7359056;19;20038;-74
2022/06/06 18:05:37;;;;;;;74.30;33.40;;;;;;;;;;7366609;19;20287;-74
2022/06/06 18:08:21;;;;;;;13.55;4.50;;;;;;;;;;7362872;19;20375;-75